Main page
METAR-TAF:

METAR-TAF

Airports :

Santa Bernardina International Airport

Durazno, Uruguay

latitude: 33-21S, longitude: 056-30W, elevation: 93 m

METAR: missing

Time: 18:04 (21:04 UTC)

Forecast

The report was made 3 hours and 34 minutes ago, at 17:30 UTC
Forecast valid from 25 at 18 UTC to 26 at 18 UTC
Wind 10 kt from the South
Visibility 10 km or more
Few clouds at a height of 1700 ft
Broken clouds at a height of 20000 ft
Temporary
from 26 at 08 UTC to 26 at 11 UTC
Visibility: 0800 m
patches of fog

TAF: SUDU 251730Z 2518/2618 17010KT 9999 FEW017 BKN200 TX10/2618Z TN01/2610Z TEMPO 2608/2611 0800 BCFG NSC

Weather observations and forecasts of more than 4000 airports (METAR and TAF reports).

The available stations are represented by yellow and red dots on the map.

Hover mouse over dot to see the name of the station.

Then click to see weather observations and forecasts.

To change the map : click on the green buttons with a black cross to zoom in, on the green button with a dash to zoom out, or on the green arrows for adjacent maps.


METAR-TAF: